Time;durP1;ratioP1;P1;durP2;ratioP2;P2;SDS_P1;SDS_P2;PMS_P1;PMS_P2;Temp;Humidity;BMP_temperature;BMP_pressure;BME280_temperature;BME280_humidity;BME280_pressure;Samples;Min_cycle;Max_cycle;Signal;HPM_P1;HPM_P2
2021/12/23 00:00:57;;;;;;;42.10;18.63;;;-5.70;98.00;;;;;;5092121;28;20449;-74
2021/12/23 00:03:26;;;;;;;37.88;17.15;;;-5.60;98.00;;;;;;5088752;28;20021;-73
2021/12/23 00:05:53;;;;;;;35.33;16.25;;;-5.50;98.00;;;;;;5090131;28;20049;-73
2021/12/23 00:08:20;;;;;;;35.45;16.48;;;-5.40;98.00;;;;;;5093685;28;20074;-73
2021/12/23 00:10:45;;;;;;;37.45;16.65;;;-5.50;98.00;;;;;;5095252;28;20013;-73
2021/12/23 00:13:11;;;;;;;54.38;24.65;;;-5.40;98.00;;;;;;5095062;28;20031;-72
2021/12/23 00:16:01;;;;;;;57.35;24.75;;;-5.50;98.00;;;;;;5094368;28;20138;-73
2021/12/23 00:23:41;;;;;;;47.75;21.23;;;-6.10;98.00;;;;;;5093470;28;20031;-72
2021/12/23 00:26:07;;;;;;;39.40;17.80;;;-6.10;98.00;;;;;;5090733;28;20044;-73
2021/12/23 00:28:33;;;;;;;43.22;19.25;;;-6.10;98.00;;;;;;5094582;28;20031;-74
2021/12/23 00:31:00;;;;;;;40.80;18.50;;;-6.00;98.00;;;;;;5090458;28;20416;-73
2021/12/23 00:33:28;;;;;;;39.05;17.85;;;-5.70;98.00;;;;;;5091973;28;20024;-74
2021/12/23 00:35:55;;;;;;;62.17;28.20;;;-5.50;98.00;;;;;;5091246;28;20052;-73
2021/12/23 00:38:32;;;;;;;57.88;26.15;;;-5.50;98.00;;;;;;5092324;28;20020;-74
2021/12/23 00:41:00;;;;;;;56.00;23.85;;;-5.80;98.00;;;;;;5094418;28;20016;-73
2021/12/23 00:43:26;;;;;;;54.50;24.65;;;-6.00;98.00;;;;;;5094910;28;20024;-73
2021/12/23 00:45:51;;;;;;;57.08;24.92;;;-6.20;98.00;;;;;;5093453;28;20035;-74
2021/12/23 00:48:18;;;;;;;58.65;23.65;;;-6.40;98.00;;;;;;5094670;28;20020;-73
2021/12/23 00:50:46;;;;;;;54.00;25.50;;;-6.50;98.00;;;;;;5093215;28;20016;-74
2021/12/23 00:53:16;;;;;;;56.33;24.65;;;-6.50;98.00;;;;;;5089467;28;20443;-74
2021/12/23 00:55:43;;;;;;;49.88;22.35;;;-6.50;98.00;;;;;;5093746;28;20016;-74
2021/12/23 00:58:08;;;;;;;54.10;23.17;;;-6.40;98.00;;;;;;5093250;28;20157;-73
2021/12/23 01:00:34;;;;;;;61.00;27.20;;;-6.30;98.00;;;;;;5094020;28;20124;-73
2021/12/23 01:03:01;;;;;;;56.17;25.63;;;-6.30;98.00;;;;;;5088245;28;20024;-73
2021/12/23 01:05:27;;;;;;;51.10;22.58;;;-6.40;98.00;;;;;;5092326;28;20036;-73
2021/12/23 01:07:53;;;;;;;57.53;25.13;;;-6.40;98.00;;;;;;5092091;28;20020;-73
2021/12/23 01:10:21;;;;;;;51.75;22.42;;;-6.40;98.00;;;;;;5093614;28;20053;-72
2021/12/23 01:12:53;;;;;;;54.72;24.48;;;-6.50;98.00;;;;;;5095523;28;20089;-72
2021/12/23 01:18:06;;;;;;;53.38;22.58;;;-6.50;98.00;;;;;;5097688;28;20070;-72
2021/12/23 01:20:35;;;;;;;48.58;22.58;;;-6.50;98.00;;;;;;5098303;28;20020;-73
2021/12/23 01:23:09;;;;;;;46.00;22.60;;;-6.60;98.00;;;;;;5097156;28;20016;-73
2021/12/23 01:25:37;;;;;;;47.08;22.30;;;-6.60;98.00;;;;;;5096415;28;20081;-73
2021/12/23 01:28:04;;;;;;;53.17;21.90;;;-6.50;98.00;;;;;;5098237;28;20031;-73
2021/12/23 01:30:30;;;;;;;53.63;23.48;;;-6.40;98.00;;;;;;5097281;28;20039;-72
2021/12/23 01:32:59;;;;;;;48.72;22.10;;;-6.00;98.00;;;;;;5090798;28;20020;-73
2021/12/23 01:35:27;;;;;;;45.60;20.23;;;-5.70;98.00;;;;;;5096594;28;20027;-74
2021/12/23 01:37:53;;;;;;;52.70;23.52;;;-5.70;98.00;;;;;;5096248;28;20035;-73
2021/12/23 01:40:20;;;;;;;47.85;22.13;;;-5.50;98.00;;;;;;5097683;28;20020;-72
2021/12/23 01:42:46;;;;;;;50.85;23.80;;;-5.30;98.00;;;;;;5094837;28;20034;-73
2021/12/23 01:45:16;;;;;;;50.50;24.33;;;-5.00;98.00;;;;;;5095923;28;20023;-72
2021/12/23 01:47:42;;;;;;;46.22;21.13;;;-4.90;98.00;;;;;;5091548;28;20036;-72
2021/12/23 01:50:09;;;;;;;48.35;22.65;;;-4.90;98.00;;;;;;5095123;28;20046;-72
2021/12/23 01:52:35;;;;;;;49.22;23.30;;;-4.90;98.00;;;;;;5096676;28;20371;-73
2021/12/23 01:55:01;;;;;;;47.78;22.17;;;-4.90;98.00;;;;;;5096218;28;20059;-72
2021/12/23 01:57:31;;;;;;;49.58;22.65;;;-4.80;98.00;;;;;;5097431;28;20104;-73
2021/12/23 01:59:58;;;;;;;47.67;22.10;;;-4.80;98.00;;;;;;5096677;28;20366;-72
2021/12/23 02:02:24;;;;;;;47.45;21.65;;;-4.80;98.00;;;;;;5096545;28;20028;-72
2021/12/23 02:04:49;;;;;;;51.28;23.23;;;-4.80;98.00;;;;;;5097249;28;20100;-72
2021/12/23 02:07:15;;;;;;;43.88;20.60;;;-4.80;98.00;;;;;;5096285;28;20044;-73
2021/12/23 02:09:41;;;;;;;48.35;21.77;;;-4.80;98.00;;;;;;5096086;28;20052;-73
2021/12/23 02:12:07;;;;;;;49.17;22.55;;;-4.80;98.00;;;;;;5092821;28;20059;-73
2021/12/23 02:14:33;;;;;;;47.85;22.13;;;-4.80;98.00;;;;;;5096652;28;20077;-72
2021/12/23 02:16:59;;;;;;;54.40;23.70;;;-4.80;98.00;;;;;;5098294;28;20486;-73
2021/12/23 02:19:26;;;;;;;50.78;22.08;;;-4.80;98.00;;;;;;5098448;28;20020;-73
2021/12/23 02:21:52;;;;;;;46.75;22.58;;;-4.80;98.00;;;;;;5092994;28;20024;-72
2021/12/23 02:24:18;;;;;;;48.03;21.58;;;-4.80;98.00;;;;;;5091947;28;20016;-73
2021/12/23 02:26:43;;;;;;;50.17;23.45;;;-4.90;98.00;;;;;;5090730;28;20085;-72
2021/12/23 02:29:10;;;;;;;51.55;22.35;;;-4.90;98.00;;;;;;5098102;28;20448;-73
2021/12/23 02:31:36;;;;;;;52.58;25.00;;;-4.90;98.00;;;;;;5098055;28;20028;-73
2021/12/23 02:34:02;;;;;;;48.05;21.95;;;-4.90;98.00;;;;;;5097393;28;20316;-73
2021/12/23 02:36:30;;;;;;;48.42;22.73;;;-4.90;98.00;;;;;;5097903;28;20367;-73
2021/12/23 02:38:57;;;;;;;49.63;22.63;;;-4.90;98.00;;;;;;5096024;28;20020;-72
2021/12/23 02:41:23;;;;;;;52.63;24.55;;;-4.90;98.00;;;;;;5087860;28;20052;-73
2021/12/23 02:43:49;;;;;;;53.80;23.73;;;-4.90;98.00;;;;;;5096854;28;20053;-73
2021/12/23 02:46:18;;;;;;;49.58;22.70;;;-4.90;98.00;;;;;;5097558;28;20040;-72
2021/12/23 02:48:44;;;;;;;49.97;22.23;;;-4.90;98.00;;;;;;5098079;28;20053;-73
2021/12/23 02:51:13;;;;;;;50.33;23.20;;;-4.90;98.00;;;;;;5097934;28;20031;-73
2021/12/23 02:53:40;;;;;;;52.35;24.05;;;-4.90;98.00;;;;;;5096223;28;20043;-73
2021/12/23 02:56:09;;;;;;;51.17;21.98;;;-4.90;98.00;;;;;;5096908;28;20506;-73
2021/12/23 02:58:35;;;;;;;50.80;22.92;;;-4.90;98.00;;;;;;5112918;28;20493;-72
2021/12/23 03:01:04;;;;;;;52.25;24.00;;;-4.90;98.00;;;;;;5096854;28;20325;-73
2021/12/23 03:03:30;;;;;;;51.20;23.77;;;-4.80;98.00;;;;;;5096917;28;20154;-72
2021/12/23 03:05:57;;;;;;;49.20;23.33;;;-4.80;98.00;;;;;;5096030;28;20114;-73
2021/12/23 03:08:34;;;;;;;53.03;23.88;;;-4.80;98.00;;;;;;5095588;28;20032;-73
2021/12/23 03:11:00;;;;;;;49.72;21.00;;;-4.80;98.00;;;;;;5091474;28;20040;-72
2021/12/23 03:13:26;;;;;;;47.33;23.77;;;-4.80;98.00;;;;;;5097185;28;20076;-72
2021/12/23 03:15:52;;;;;;;48.63;22.20;;;-4.70;98.00;;;;;;5096609;28;20032;-72
2021/12/23 03:18:18;;;;;;;53.60;23.83;;;-4.70;98.00;;;;;;5094896;28;20305;-71
2021/12/23 03:20:44;;;;;;;50.67;23.75;;;-4.70;98.00;;;;;;5095801;28;20020;-72
2021/12/23 03:23:10;;;;;;;50.30;23.05;;;-4.70;98.00;;;;;;5092997;28;20568;-72
2021/12/23 03:25:35;;;;;;;42.88;20.60;;;-4.70;98.00;;;;;;5095824;28;20027;-73
2021/12/23 03:28:04;;;;;;;50.17;23.33;;;-4.70;98.00;;;;;;5095870;28;20039;-73
2021/12/23 03:30:32;;;;;;;49.92;24.25;;;-4.60;98.00;;;;;;5095352;28;20032;-73
2021/12/23 03:32:58;;;;;;;48.28;20.65;;;-4.60;98.00;;;;;;5096921;28;20436;-73
2021/12/23 03:35:24;;;;;;;46.45;22.48;;;-4.60;98.00;;;;;;5096291;28;20171;-73
2021/12/23 03:37:49;;;;;;;48.08;23.08;;;-4.50;98.00;;;;;;5094091;28;20025;-72
2021/12/23 03:40:15;;;;;;;44.13;20.17;;;-4.60;98.00;;;;;;5096791;28;20020;-73
2021/12/23 03:42:41;;;;;;;47.22;21.77;;;-4.60;97.80;;;;;;5096460;28;20028;-73
2021/12/23 03:45:08;;;;;;;52.53;23.70;;;-4.60;97.90;;;;;;5096467;28;20413;-72
2021/12/23 03:47:37;;;;;;;47.33;20.70;;;-4.70;98.00;;;;;;5095858;28;20028;-72
2021/12/23 03:50:05;;;;;;;44.83;20.25;;;-4.70;97.90;;;;;;5096036;28;20077;-72
2021/12/23 03:52:31;;;;;;;39.92;19.95;;;-4.70;98.00;;;;;;5093681;28;20362;-72
2021/12/23 03:54:57;;;;;;;40.17;19.27;;;-4.60;97.40;;;;;;5096456;28;20020;-72
2021/12/23 03:57:22;;;;;;;40.90;18.88;;;-4.40;96.90;;;;;;5096236;28;20400;-73
2021/12/23 03:59:51;;;;;;;32.22;15.10;;;-4.30;96.50;;;;;;5095154;28;20024;-72
2021/12/23 04:02:17;;;;;;;32.85;14.55;;;-4.10;95.50;;;;;;5095799;28;20412;-73
2021/12/23 04:04:43;;;;;;;41.17;18.42;;;-3.80;94.70;;;;;;5095557;28;20052;-73
2021/12/23 04:07:11;;;;;;;40.60;19.20;;;-3.80;94.50;;;;;;5094195;28;20851;-72
2021/12/23 04:09:37;;;;;;;35.90;18.48;;;-4.00;95.20;;;;;;5094443;28;20052;-72
2021/12/23 04:12:03;;;;;;;40.90;19.08;;;-4.00;95.60;;;;;;5095288;28;20024;-73
2021/12/23 04:14:30;;;;;;;43.78;20.98;;;-4.10;95.80;;;;;;5096162;28;20047;-72
2021/12/23 04:16:56;;;;;;;47.90;21.38;;;-4.10;96.20;;;;;;5095687;28;20027;-72
2021/12/23 04:19:27;;;;;;;42.58;19.90;;;-4.20;96.60;;;;;;5090548;28;20110;-72
2021/12/23 04:21:53;;;;;;;40.53;19.02;;;-4.30;97.00;;;;;;5094344;28;20078;-72
2021/12/23 04:24:19;;;;;;;43.65;19.17;;;-4.20;97.60;;;;;;5095660;28;20040;-72
2021/12/23 04:26:44;;;;;;;38.60;18.35;;;-4.00;97.40;;;;;;5094662;28;20114;-72
2021/12/23 04:29:10;;;;;;;31.85;16.02;;;-3.90;97.20;;;;;;5094911;28;20031;-72
2021/12/23 04:31:36;;;;;;;37.78;17.02;;;-3.80;97.00;;;;;;5096369;28;20063;-72
2021/12/23 04:34:01;;;;;;;33.60;16.13;;;-3.70;97.10;;;;;;5093016;28;20028;-72
2021/12/23 04:36:29;;;;;;;33.05;14.27;;;-3.50;97.10;;;;;;5095013;28;20094;-73
2021/12/23 04:38:55;;;;;;;34.63;15.75;;;-3.40;96.60;;;;;;5094142;28;20361;-72
2021/12/23 04:41:21;;;;;;;37.75;18.02;;;-3.40;96.50;;;;;;5094326;28;20046;-72
2021/12/23 04:43:47;;;;;;;31.10;14.27;;;-3.50;96.80;;;;;;5095978;28;20106;-72
2021/12/23 04:46:12;;;;;;;32.22;15.18;;;-3.40;97.30;;;;;;5093895;28;20021;-72
2021/12/23 04:48:39;;;;;;;28.17;13.65;;;-3.30;96.90;;;;;;5075862;28;20034;-73
2021/12/23 04:51:05;;;;;;;26.60;13.25;;;-3.00;96.30;;;;;;5085474;28;20016;-72
2021/12/23 04:53:31;;;;;;;34.47;16.67;;;-2.80;95.90;;;;;;5093417;28;20028;-73
2021/12/23 04:55:57;;;;;;;41.20;18.80;;;-2.70;95.70;;;;;;5094633;28;20626;-72
2021/12/23 04:58:23;;;;;;;43.25;21.00;;;-3.00;95.50;;;;;;5095422;28;20024;-72
2021/12/23 05:00:50;;;;;;;41.90;19.77;;;-3.40;95.90;;;;;;5095156;28;20082;-72
2021/12/23 05:03:21;;;;;;;42.20;20.00;;;-3.70;96.80;;;;;;5095242;28;20054;-73
2021/12/23 05:05:48;;;;;;;38.85;19.88;;;-3.90;97.70;;;;;;5095836;28;20042;-73
2021/12/23 05:08:14;;;;;;;34.58;17.23;;;-4.10;98.00;;;;;;5094660;28;20028;-72
2021/12/23 05:10:40;;;;;;;45.60;21.65;;;-4.20;98.00;;;;;;5095423;28;20033;-72
2021/12/23 05:13:07;;;;;;;41.47;19.67;;;-4.30;98.00;;;;;;5095304;28;20089;-72
2021/12/23 05:15:32;;;;;;;45.10;21.95;;;-4.50;98.00;;;;;;5095220;28;20488;-72
2021/12/23 05:17:58;;;;;;;46.00;21.15;;;-4.60;98.00;;;;;;5094739;28;20095;-72
2021/12/23 05:20:24;;;;;;;45.63;21.02;;;-4.70;98.00;;;;;;5095513;28;20016;-72
2021/12/23 05:22:50;;;;;;;46.63;21.70;;;-4.70;98.00;;;;;;5093826;28;20413;-73
2021/12/23 05:25:17;;;;;;;41.03;18.10;;;-4.90;98.00;;;;;;5094949;28;20024;-72
2021/12/23 05:27:43;;;;;;;51.50;22.45;;;-4.90;98.00;;;;;;5094065;28;20024;-72
2021/12/23 05:30:12;;;;;;;45.83;21.05;;;-5.00;98.00;;;;;;5094530;28;20057;-73
2021/12/23 05:32:38;;;;;;;44.42;20.27;;;-5.10;98.00;;;;;;5094324;28;20032;-73
2021/12/23 05:35:05;;;;;;;48.17;20.35;;;-5.10;98.00;;;;;;5094121;28;20020;-72
2021/12/23 05:37:31;;;;;;;42.13;20.48;;;-5.00;98.00;;;;;;5093896;28;20547;-73
2021/12/23 05:39:57;;;;;;;45.85;20.42;;;-5.00;98.00;;;;;;5093443;28;20051;-72
2021/12/23 05:42:22;;;;;;;42.38;20.15;;;-4.90;98.00;;;;;;5094961;28;20111;-73
2021/12/23 05:44:48;;;;;;;40.42;18.17;;;-4.90;98.00;;;;;;5095070;28;20032;-73
2021/12/23 05:47:14;;;;;;;40.88;18.88;;;-4.70;98.00;;;;;;5095303;28;20036;-72
2021/12/23 05:49:40;;;;;;;38.53;17.85;;;-4.40;98.00;;;;;;5094763;28;20111;-72
2021/12/23 05:52:05;;;;;;;43.08;18.73;;;-4.10;98.00;;;;;;5094403;28;20036;-72
2021/12/23 05:54:31;;;;;;;81.65;30.27;;;-3.60;98.00;;;;;;5094870;28;20024;-72
2021/12/23 05:57:01;;;;;;;40.85;18.63;;;-3.00;98.00;;;;;;5094964;28;20040;-72
2021/12/23 05:59:31;;;;;;;32.85;15.73;;;-2.90;97.60;;;;;;5098457;28;20027;-72
2021/12/23 06:01:58;;;;;;;28.83;13.70;;;-3.00;97.10;;;;;;5098727;28;20404;-72
2021/12/23 06:04:24;;;;;;;32.88;15.93;;;-3.20;97.30;;;;;;5097293;28;20428;-72
2021/12/23 06:06:50;;;;;;;33.25;15.60;;;-3.30;97.80;;;;;;5096104;28;20305;-72
2021/12/23 06:09:15;;;;;;;38.25;19.60;;;-3.30;97.80;;;;;;5097660;28;20070;-71
2021/12/23 06:11:41;;;;;;;68.65;33.03;;;-3.50;97.80;;;;;;5098080;28;20028;-71
2021/12/23 06:14:07;;;;;;;51.28;23.52;;;-3.70;98.00;;;;;;5098049;28;20020;-71
2021/12/23 06:16:33;;;;;;;43.90;21.50;;;-3.90;98.00;;;;;;5098025;28;20027;-71
2021/12/23 06:18:58;;;;;;;39.00;18.90;;;-4.00;98.00;;;;;;5098567;28;20020;-72
2021/12/23 06:21:28;;;;;;;32.38;16.08;;;-4.10;98.00;;;;;;5098015;28;20020;-72
2021/12/23 06:23:53;;;;;;;35.38;17.23;;;-4.10;98.00;;;;;;5097314;28;20019;-73
2021/12/23 06:26:20;;;;;;;39.28;19.77;;;-4.10;98.00;;;;;;5098346;28;20095;-72
2021/12/23 06:28:45;;;;;;;42.47;20.77;;;-4.10;98.00;;;;;;5097674;28;20035;-73
2021/12/23 06:31:11;;;;;;;43.20;20.92;;;-4.20;98.00;;;;;;5095925;28;20020;-72
2021/12/23 06:33:37;;;;;;;47.00;23.38;;;-4.20;98.00;;;;;;5097664;28;20032;-72
2021/12/23 06:36:03;;;;;;;35.70;19.50;;;-4.20;98.00;;;;;;5096022;28;20028;-72
2021/12/23 06:38:28;;;;;;;53.80;28.52;;;-4.20;98.00;;;;;;5097213;28;20456;-72
2021/12/23 06:40:54;;;;;;;60.25;31.70;;;-4.10;98.00;;;;;;5098451;28;20103;-72
2021/12/23 06:43:20;;;;;;;35.35;18.30;;;-4.00;98.00;;;;;;5098127;28;20055;-72
2021/12/23 06:45:45;;;;;;;32.85;17.60;;;-3.90;98.00;;;;;;5097736;28;20043;-72
2021/12/23 06:48:14;;;;;;;24.17;12.95;;;-3.80;98.00;;;;;;5096818;28;20476;-72
2021/12/23 06:50:40;;;;;;;22.60;11.43;;;-3.70;98.00;;;;;;5097248;28;20036;-72
2021/12/23 06:53:06;;;;;;;22.60;11.98;;;-3.50;98.00;;;;;;5096979;28;20089;-72
2021/12/23 06:55:32;;;;;;;20.45;10.60;;;-3.40;98.00;;;;;;5097767;28;20056;-72
2021/12/23 06:57:57;;;;;;;20.02;10.85;;;-3.30;98.00;;;;;;5097666;28;20408;-72
2021/12/23 07:00:26;;;;;;;22.42;11.68;;;-3.30;98.00;;;;;;5097587;28;20028;-72
2021/12/23 07:02:52;;;;;;;20.25;10.98;;;-3.00;98.00;;;;;;5096121;28;20039;-73
2021/12/23 07:05:18;;;;;;;16.90;8.93;;;-3.00;98.00;;;;;;5097516;28;20034;-72
2021/12/23 07:07:54;;;;;;;28.60;12.10;;;-2.80;98.00;;;;;;5094658;28;20115;-72
2021/12/23 07:10:30;;;;;;;22.98;10.88;;;-2.80;97.60;;;;;;5096703;28;20047;-72
2021/12/23 07:12:57;;;;;;;15.00;8.18;;;-2.70;97.50;;;;;;5096451;28;20036;-72
2021/12/23 07:15:24;;;;;;;20.23;9.45;;;-2.50;96.80;;;;;;5096694;28;20032;-72
2021/12/23 07:17:51;;;;;;;15.05;8.15;;;-2.00;95.50;;;;;;5095561;28;20028;-72
2021/12/23 07:20:17;;;;;;;15.35;8.57;;;-1.70;94.10;;;;;;5094989;28;20031;-72
2021/12/23 07:22:43;;;;;;;18.90;9.82;;;-1.90;93.80;;;;;;5095587;28;20032;-72
2021/12/23 07:25:09;;;;;;;14.32;8.18;;;-2.10;94.70;;;;;;5097109;28;20103;-72
2021/12/23 07:27:35;;;;;;;17.00;11.48;;;-2.30;95.60;;;;;;5096862;28;20028;-72
2021/12/23 07:30:02;;;;;;;20.23;12.20;;;-2.30;96.40;;;;;;5096935;28;20416;-72
2021/12/23 07:32:28;;;;;;;442.50;158.82;;;-2.30;96.40;;;;;;5096953;28;20024;-71
2021/12/23 07:34:54;;;;;;;27.50;14.57;;;-2.40;96.50;;;;;;5096877;28;20447;-72
2021/12/23 07:37:20;;;;;;;330.35;120.28;;;-2.30;97.30;;;;;;5093483;28;20031;-73
2021/12/23 07:39:47;;;;;;;81.20;34.88;;;-2.30;97.20;;;;;;5095052;28;20028;-73
2021/12/23 07:42:15;;;;;;;17.25;10.32;;;-2.30;97.40;;;;;;5095853;28;20035;-72
2021/12/23 07:44:41;;;;;;;15.82;8.65;;;-2.10;97.50;;;;;;5095223;28;20081;-72
2021/12/23 07:47:07;;;;;;;13.73;7.20;;;-1.60;96.30;;;;;;5095919;28;20024;-72
2021/12/23 07:49:33;;;;;;;9.52;5.35;;;-1.40;95.40;;;;;;5095782;28;20402;-72
2021/12/23 07:51:58;;;;;;;9.85;5.20;;;-1.50;95.40;;;;;;5093763;28;20518;-73
2021/12/23 07:54:24;;;;;;;8.18;5.13;;;-1.50;95.70;;;;;;5096001;28;20372;-73
2021/12/23 07:56:50;;;;;;;15.63;7.25;;;-1.40;95.90;;;;;;5096622;28;20070;-73
2021/12/23 07:59:16;;;;;;;10.95;6.00;;;-1.10;95.50;;;;;;5094958;28;20326;-73
2021/12/23 08:01:41;;;;;;;11.60;5.43;;;-1.10;95.00;;;;;;5096065;28;20032;-72
2021/12/23 08:04:07;;;;;;;15.80;7.90;;;-0.80;94.80;;;;;;5096203;28;20450;-73
2021/12/23 08:06:32;;;;;;;13.23;7.57;;;-0.50;94.40;;;;;;5096785;28;20081;-72
2021/12/23 08:08:58;;;;;;;10.15;6.15;;;-0.20;93.70;;;;;;5093962;28;20452;-72
2021/12/23 08:11:24;;;;;;;10.25;4.53;;;0.50;92.10;;;;;;5094799;28;20286;-72
2021/12/23 08:13:50;;;;;;;8.05;4.03;;;0.90;90.70;;;;;;5094729;28;20017;-72
2021/12/23 08:16:15;;;;;;;7.95;3.65;;;1.20;90.00;;;;;;5096431;28;20412;-72
2021/12/23 08:18:41;;;;;;;8.13;3.95;;;1.70;89.00;;;;;;5094364;28;20153;-72
2021/12/23 08:21:06;;;;;;;7.68;4.65;;;2.10;88.40;;;;;;5095350;28;20035;-72
2021/12/23 08:23:32;;;;;;;6.43;3.35;;;2.40;87.90;;;;;;5094607;28;20121;-73
2021/12/23 08:26:04;;;;;;;6.15;3.20;;;2.80;86.60;;;;;;5096214;28;20367;-72
2021/12/23 08:28:31;;;;;;;6.07;3.42;;;3.30;85.30;;;;;;5095304;28;20024;-72
2021/12/23 08:30:57;;;;;;;19.67;9.80;;;3.60;84.80;;;;;;5096060;28;20462;-72
2021/12/23 08:33:23;;;;;;;11.90;7.03;;;3.70;84.70;;;;;;5094447;28;20036;-72
2021/12/23 08:35:49;;;;;;;9.48;5.32;;;4.00;84.20;;;;;;5095723;28;20024;-71
2021/12/23 08:38:14;;;;;;;8.38;4.43;;;4.80;82.40;;;;;;5093957;28;20028;-72
2021/12/23 08:40:40;;;;;;;6.68;3.45;;;5.30;80.10;;;;;;5095289;28;20016;-72
2021/12/23 08:43:06;;;;;;;9.63;3.75;;;5.70;79.00;;;;;;5095067;28;20032;-72
2021/12/23 08:45:34;;;;;;;6.88;3.25;;;6.40;78.80;;;;;;5094277;28;20061;-72
2021/12/23 08:47:59;;;;;;;6.40;3.10;;;7.20;76.70;;;;;;5095295;28;20028;-72
2021/12/23 08:50:27;;;;;;;6.03;3.10;;;7.50;74.20;;;;;;5095110;28;20032;-71
2021/12/23 08:52:53;;;;;;;6.38;3.40;;;7.30;73.60;;;;;;5094373;28;20367;-72
2021/12/23 08:55:20;;;;;;;10.50;4.15;;;6.80;75.00;;;;;;5095727;28;20027;-71
2021/12/23 08:57:46;;;;;;;10.23;5.25;;;6.20;76.40;;;;;;5095296;28;20375;-72
2021/12/23 09:00:15;;;;;;;11.75;7.55;;;6.00;77.60;;;;;;5095386;28;20071;-71
2021/12/23 09:02:41;;;;;;;8.60;4.18;;;5.70;79.10;;;;;;5094182;28;20135;-70
2021/12/23 09:05:07;;;;;;;7.22;4.32;;;5.70;79.30;;;;;;5095450;28;20089;-70
2021/12/23 09:07:33;;;;;;;7.60;3.95;;;5.60;79.50;;;;;;5094072;28;20067;-71
2021/12/23 09:09:59;;;;;;;9.77;4.38;;;5.60;79.70;;;;;;5095181;28;20102;-69
2021/12/23 09:12:28;;;;;;;11.98;5.70;;;5.50;79.50;;;;;;5088193;28;20024;-70
2021/12/23 09:14:54;;;;;;;9.98;5.35;;;5.40;79.40;;;;;;5093756;28;20036;-72
2021/12/23 09:17:20;;;;;;;10.65;5.10;;;5.50;79.30;;;;;;5095423;28;20025;-72
2021/12/23 09:19:46;;;;;;;10.02;4.72;;;5.60;79.10;;;;;;5094998;28;20035;-72
2021/12/23 09:22:12;;;;;;;12.15;5.57;;;5.60;79.00;;;;;;5094134;28;20048;-72
2021/12/23 09:24:42;;;;;;;12.73;5.90;;;5.80;78.70;;;;;;5093847;28;20087;-72
2021/12/23 09:34:54;;;;;;;10.50;5.80;;;7.00;75.50;;;;;;5098294;28;20428;-71
2021/12/23 09:37:22;;;;;;;11.35;6.43;;;6.80;75.00;;;;;;5097615;28;20035;-71
2021/12/23 09:39:56;;;;;;;14.20;7.70;;;6.30;75.90;;;;;;5097066;28;20498;-72
2021/12/23 09:42:29;;;;;;;12.80;7.20;;;6.00;76.40;;;;;;5097187;28;20408;-71
2021/12/23 09:44:58;;;;;;;11.82;6.68;;;5.70;76.90;;;;;;5096771;28;20020;-70
2021/12/23 09:47:31;;;;;;;17.25;7.65;;;5.60;77.80;;;;;;5097189;28;20035;-71
2021/12/23 09:49:59;;;;;;;11.65;6.20;;;5.50;77.70;;;;;;5098784;28;20036;-71
2021/12/23 09:52:30;;;;;;;9.07;5.15;;;5.50;77.80;;;;;;5097673;28;20028;-71
2021/12/23 09:54:56;;;;;;;10.00;5.60;;;5.60;77.70;;;;;;5098460;28;20129;-71
2021/12/23 09:57:22;;;;;;;11.32;6.13;;;5.70;78.00;;;;;;5097401;28;20020;-70
2021/12/23 09:59:48;;;;;;;9.75;5.53;;;5.80;77.60;;;;;;5097589;28;20046;-72
2021/12/23 10:02:14;;;;;;;11.77;6.38;;;5.80;77.00;;;;;;5098483;28;20351;-71
2021/12/23 10:04:40;;;;;;;12.10;7.50;;;5.90;76.90;;;;;;5098639;28;20028;-71
2021/12/23 10:07:06;;;;;;;10.32;5.85;;;6.10;76.60;;;;;;5097471;28;20047;-71
2021/12/23 10:10:01;;;;;;;9.00;5.35;;;6.20;76.20;;;;;;5098797;28;20040;-72
2021/12/23 10:27:02;;;;;;;;;;;6.50;75.30;;;;;;5098689;28;20027;-72
2021/12/23 10:37:17;;;;;;;11.23;4.90;;;7.60;73.40;;;;;;5096456;28;20348;-70
2021/12/23 10:40:04;;;;;;;7.90;4.40;;;7.70;72.60;;;;;;5097152;28;20023;-70
2021/12/23 10:42:32;;;;;;;8.27;4.47;;;7.80;72.20;;;;;;5096282;28;20067;-70
2021/12/23 10:45:08;;;;;;;9.82;4.68;;;7.80;72.60;;;;;;5091167;28;20031;-70
2021/12/23 10:47:55;;;;;;;10.15;4.35;;;7.80;72.30;;;;;;5096665;28;20034;-70
2021/12/23 10:50:50;;;;;;;10.35;5.20;;;7.80;72.00;;;;;;5093896;28;20028;-70
2021/12/23 10:53:41;;;;;;;10.65;5.90;;;7.70;71.20;;;;;;5094583;28;20039;-70
2021/12/23 10:59:20;;;;;;;9.43;4.65;;;7.50;71.50;;;;;;5097581;28;20078;-70
2021/12/23 11:02:11;;;;;;;8.07;4.95;;;7.50;71.80;;;;;;5097946;28;20032;-70
2021/12/23 11:05:09;;;;;;;7.70;4.55;;;7.70;71.80;;;;;;5096190;28;20032;-70
2021/12/23 11:08:06;;;;;;;10.95;5.32;;;7.80;70.80;;;;;;5094204;28;20024;-70
2021/12/23 11:38:32;;;;;;;14.20;7.53;;;7.10;74.30;;;;;;5095150;28;20066;-70
2021/12/23 11:41:06;;;;;;;12.38;6.10;;;7.00;74.20;;;;;;5096726;28;20020;-70
2021/12/23 11:43:54;;;;;;;10.07;5.60;;;7.00;73.70;;;;;;5096489;28;20036;-70
2021/12/23 11:46:52;;;;;;;11.77;5.93;;;7.10;74.00;;;;;;5096740;28;20030;-69
2021/12/23 11:49:19;;;;;;;7.82;4.28;;;7.10;73.30;;;;;;5096408;28;20329;-70
2021/12/23 11:54:19;;;;;;;12.48;5.47;;;7.30;72.30;;;;;;5096610;28;20053;-71
2021/12/23 11:56:54;;;;;;;11.35;5.47;;;7.30;73.10;;;;;;5095511;28;20020;-71
2021/12/23 11:59:21;;;;;;;10.90;5.68;;;7.40;72.30;;;;;;5096642;28;20412;-72
2021/12/23 12:01:52;;;;;;;13.48;7.80;;;7.50;72.80;;;;;;5096529;28;20064;-71
2021/12/23 12:04:28;;;;;;;18.42;10.38;;;7.40;73.20;;;;;;5096606;28;20028;-72
2021/12/23 12:06:56;;;;;;;17.75;10.27;;;7.30;74.30;;;;;;5094623;28;20055;-71
2021/12/23 12:09:23;;;;;;;13.77;8.10;;;7.20;75.30;;;;;;5096265;28;20119;-71
2021/12/23 12:12:10;;;;;;;13.93;8.35;;;7.40;75.20;;;;;;5095265;28;20028;-72
2021/12/23 12:14:38;;;;;;;12.30;6.85;;;7.50;74.60;;;;;;5094103;28;20035;-72
2021/12/23 12:17:23;;;;;;;12.30;6.78;;;7.50;74.10;;;;;;5094944;28;20024;-71
2021/12/23 12:20:14;;;;;;;;;;;7.80;72.50;;;;;;5096276;28;20020;-71
2021/12/23 12:22:47;;;;;;;12.23;5.78;;;7.80;72.00;;;;;;5088801;28;19908;-71
2021/12/23 12:25:40;;;;;;;11.63;5.70;;;7.90;72.50;;;;;;5095322;28;20020;-71
2021/12/23 12:28:06;;;;;;;9.07;5.28;;;8.10;71.10;;;;;;5093049;28;20297;-71
2021/12/23 12:30:34;;;;;;;9.07;4.82;;;8.00;71.90;;;;;;5095543;28;20098;-71
2021/12/23 12:33:03;;;;;;;9.70;4.53;;;8.00;72.60;;;;;;5095540;28;20047;-71
2021/12/23 12:35:29;;;;;;;6.38;2.70;;;8.00;70.60;;;;;;5094471;28;20051;-72
2021/12/23 12:38:10;;;;;;;5.88;2.72;;;8.20;69.90;;;;;;5094349;28;20066;-71
2021/12/23 12:40:57;;;;;;;6.40;2.55;;;8.30;69.20;;;;;;5095147;28;20146;-71
2021/12/23 12:43:40;;;;;;;5.40;2.50;;;8.50;69.70;;;;;;5095556;28;20019;-70
2021/12/23 12:46:07;;;;;;;5.38;2.53;;;8.60;67.30;;;;;;5093392;28;20032;-71
2021/12/23 12:48:54;;;;;;;6.97;2.83;;;8.60;67.60;;;;;;5095649;28;20034;-71
2021/12/23 12:51:22;;;;;;;5.63;2.70;;;8.50;68.60;;;;;;5095004;28;20434;-71
2021/12/23 12:53:55;;;;;;;6.70;2.38;;;8.50;68.40;;;;;;5094357;28;20032;-72
2021/12/23 12:56:22;;;;;;;5.03;2.30;;;8.60;67.80;;;;;;5095010;28;20031;-73
2021/12/23 12:58:54;;;;;;;8.13;4.00;;;8.70;67.60;;;;;;5095578;28;20060;-71
2021/12/23 13:01:43;;;;;;;6.22;2.85;;;8.70;68.30;;;;;;5095403;28;20008;-69
2021/12/23 13:04:44;;;;;;;8.52;3.97;;;8.70;67.30;;;;;;5094740;28;20027;-71
2021/12/23 13:07:29;;;;;;;8.98;4.32;;;8.80;68.20;;;;;;5075722;28;20031;-71
2021/12/23 13:10:02;;;;;;;6.90;4.22;;;8.80;68.40;;;;;;5098894;28;20043;-71
2021/12/23 13:12:47;;;;;;;7.65;3.92;;;8.80;68.90;;;;;;5099863;28;20359;-70
2021/12/23 13:15:19;;;;;;;8.90;5.43;;;8.60;68.30;;;;;;5098489;28;20358;-70
2021/12/23 13:18:00;;;;;;;8.75;4.70;;;8.50;69.70;;;;;;5095336;28;20087;-70
2021/12/23 13:20:36;;;;;;;10.75;5.55;;;8.40;69.50;;;;;;5099524;28;20107;-70
2021/12/23 13:23:06;;;;;;;15.52;7.53;;;8.30;71.10;;;;;;5097956;28;20020;-70
2021/12/23 13:25:33;;;;;;;16.05;8.18;;;8.20;72.00;;;;;;5099598;28;20407;-69
2021/12/23 13:28:06;;;;;;;19.33;10.73;;;8.10;72.30;;;;;;5099084;28;20016;-70
2021/12/23 13:30:33;;;;;;;26.40;14.38;;;7.90;72.70;;;;;;5099093;28;20073;-70
2021/12/23 13:33:01;;;;;;;15.70;9.32;;;7.80;73.20;;;;;;5099319;28;20107;-70
2021/12/23 13:35:28;;;;;;;15.38;8.38;;;7.70;74.50;;;;;;5099554;28;20099;-70
2021/12/23 13:37:54;;;;;;;20.55;10.20;;;7.50;75.20;;;;;;5097743;28;20020;-70
2021/12/23 13:40:33;;;;;;;15.15;7.32;;;7.30;76.00;;;;;;5099212;28;20024;-69
2021/12/23 13:43:01;;;;;;;14.73;8.32;;;7.20;76.50;;;;;;5098901;28;20062;-69
2021/12/23 13:45:28;;;;;;;13.73;7.53;;;7.00;76.70;;;;;;5098403;28;20027;-70
2021/12/23 13:47:56;;;;;;;13.48;7.43;;;6.90;77.30;;;;;;5099005;28;20115;-70
2021/12/23 13:50:24;;;;;;;12.82;7.55;;;6.80;77.60;;;;;;5099432;28;20035;-70
2021/12/23 13:52:51;;;;;;;10.05;6.15;;;6.60;78.30;;;;;;5097751;28;20059;-69
2021/12/23 13:55:26;;;;;;;15.52;6.65;;;6.60;77.50;;;;;;5098802;28;20024;-70